Time;durP1;ratioP1;P1;durP2;ratioP2;P2;SDS_P1;SDS_P2;PMS_P1;PMS_P2;Temp;Humidity;BMP_temperature;BMP_pressure;BME280_temperature;BME280_humidity;BME280_pressure;Samples;Min_cycle;Max_cycle;Signal;HPM_P1;HPM_P2
2020/03/06 00:01:09;;;;;;;2.3;1.1;;;;;;;7.34;62.82129;915.8054;;;;
2020/03/06 00:03:33;;;;;;;3;1.5;;;;;;;7.42;62.58203;915.7919;;;;
2020/03/06 00:06:01;;;;;;;4.5;2.3;;;;;;;7.6;61.73633;915.8467;;;;
2020/03/06 00:08:28;;;;;;;2.6;2.2;;;;;;;7.58;61.46094;915.8201;;;;
2020/03/06 00:10:55;;;;;;;4.1;1.1;;;;;;;7.41;64.8252;915.7484;;;;
2020/03/06 00:13:20;;;;;;;1.9;0.9;;;;;;;7.12;65.23438;915.6873;;;;
2020/03/06 00:15:45;;;;;;;1.7;1.1;;;;;;;7.09;66.89551;915.5452;;;;
2020/03/06 00:18:10;;;;;;;1.7;0.7;;;;;;;6.94;68.07227;915.5392;;;;
2020/03/06 00:20:35;;;;;;;1.1;0.8;;;;;;;6.94;66.01074;915.5597;;;;
2020/03/06 00:23:00;;;;;;;1.5;1;;;;;;;7.03;67.14648;915.4725;;;;
2020/03/06 00:25:25;;;;;;;2.3;0.8;;;;;;;6.89;66.29688;915.4055;;;;
2020/03/06 00:27:50;;;;;;;1.3;0.9;;;;;;;6.73;68.61621;915.4911;;;;
2020/03/06 00:30:16;;;;;;;1.1;0.7;;;;;;;6.91;67.78418;915.4091;;;;
2020/03/06 00:32:43;;;;;;;1.1;0.7;;;;;;;7.08;67.45898;915.3666;;;;
2020/03/06 00:35:09;;;;;;;0.7;0.7;;;;;;;7.2;66.95605;915.4147;;;;
2020/03/06 00:37:37;;;;;;;1.4;0.8;;;;;;;6.99;67.57129;915.3318;;;;
2020/03/06 00:39:59;;;;;;;0.9;0.6;;;;;;;6.82;68.5625;915.3455;;;;
2020/03/06 00:42:24;;;;;;;1.4;0.8;;;;;;;6.66;68.83105;915.307;;;;
2020/03/06 00:44:49;;;;;;;1.5;0.7;;;;;;;6.66;68.32129;915.3324;;;;
2020/03/06 00:47:14;;;;;;;1.7;0.7;;;;;;;6.68;67.55469;915.3195;;;;
2020/03/06 00:49:39;;;;;;;0.8;0.8;;;;;;;6.58;67.7998;915.2581;;;;
2020/03/06 00:52:04;;;;;;;0.9;0.8;;;;;;;6.66;67.79004;915.2224;;;;
2020/03/06 00:54:29;;;;;;;1.1;0.9;;;;;;;6.74;66.70508;915.2798;;;;
2020/03/06 00:56:54;;;;;;;1.8;0.8;;;;;;;6.7;66.85645;915.3398;;;;
2020/03/06 00:59:19;;;;;;;0.9;0.8;;;;;;;6.68;67.51074;915.264;;;;
2020/03/06 01:01:45;;;;;;;1.5;1.1;;;;;;;6.69;67.22949;915.2536;;;;
2020/03/06 01:04:10;;;;;;;1.7;0.8;;;;;;;6.66;67.06543;915.2297;;;;
2020/03/06 01:06:35;;;;;;;1.4;0.9;;;;;;;6.73;65.54883;915.3092;;;;
2020/03/06 01:09:00;;;;;;;2;0.9;;;;;;;6.81;65.94531;915.2426;;;;
2020/03/06 01:11:25;;;;;;;1.9;0.9;;;;;;;6.6;66.66016;915.3638;;;;
2020/03/06 01:13:50;;;;;;;1.4;0.8;;;;;;;6.55;67.70508;915.3856;;;;
2020/03/06 01:16:15;;;;;;;1.5;0.8;;;;;;;6.65;67.6543;915.3159;;;;
2020/03/06 01:18:40;;;;;;;1.7;0.9;;;;;;;6.79;66.56445;915.3796;;;;
2020/03/06 01:21:05;;;;;;;1.3;0.8;;;;;;;6.78;65.28418;915.4177;;;;
2020/03/06 01:23:31;;;;;;;1.3;0.8;;;;;;;6.86;65.45508;915.4019;;;;
2020/03/06 01:25:56;;;;;;;1.9;1;;;;;;;6.88;65.2998;915.2783;;;;
2020/03/06 01:28:24;;;;;;;3.5;0.9;;;;;;;6.92;66.06445;915.3456;;;;
2020/03/06 01:30:49;;;;;;;1.3;0.8;;;;;;;6.88;65.49219;915.4152;;;;
2020/03/06 01:33:14;;;;;;;1.3;0.9;;;;;;;6.88;65.53711;915.3883;;;;
2020/03/06 01:35:39;;;;;;;0.8;0.7;;;;;;;6.94;65.6377;915.3375;;;;
2020/03/06 01:38:04;;;;;;;1.7;0.8;;;;;;;6.97;65.94727;915.4249;;;;
2020/03/06 01:40:30;;;;;;;5.2;1.4;;;;;;;7.04;66.00391;915.4606;;;;
2020/03/06 01:42:55;;;;;;;1.2;0.7;;;;;;;6.89;66.30957;915.4821;;;;
2020/03/06 01:45:20;;;;;;;2.5;0.8;;;;;;;6.77;66.26758;915.44;;;;
2020/03/06 01:47:45;;;;;;;1.6;0.7;;;;;;;6.62;66.73145;915.4799;;;;
2020/03/06 01:50:10;;;;;;;1.5;0.7;;;;;;;6.68;66.76465;915.4483;;;;
2020/03/06 01:52:35;;;;;;;0.9;0.8;;;;;;;6.76;67.38672;915.4512;;;;
2020/03/06 01:55:00;;;;;;;0.9;0.6;;;;;;;6.74;66.9873;915.4562;;;;
2020/03/06 01:57:25;;;;;;;2.7;0.8;;;;;;;6.8;67.58496;915.4554;;;;
2020/03/06 01:59:51;;;;;;;0.9;0.7;;;;;;;6.9;66.45703;915.4725;;;;
2020/03/06 02:02:16;;;;;;;1.3;0.9;;;;;;;6.92;66.7334;915.4626;;;;
2020/03/06 02:04:41;;;;;;;1.6;0.9;;;;;;;7.03;66.98633;915.4885;;;;
2020/03/06 02:07:06;;;;;;;1.4;0.8;;;;;;;6.79;67.05176;915.4785;;;;
2020/03/06 02:09:31;;;;;;;1.7;0.6;;;;;;;6.83;67.20605;915.4814;;;;
2020/03/06 02:11:56;;;;;;;0.9;0.6;;;;;;;6.85;67.45703;915.5555;;;;
2020/03/06 02:14:21;;;;;;;1;0.6;;;;;;;6.84;67.35449;915.5856;;;;
2020/03/06 02:16:47;;;;;;;1.4;0.7;;;;;;;6.54;68.61914;915.5233;;;;
2020/03/06 02:19:12;;;;;;;1;0.7;;;;;;;6.69;68.04297;915.634;;;;
2020/03/06 02:21:40;;;;;;;0.9;0.7;;;;;;;6.74;67.9502;915.5907;;;;
2020/03/06 02:24:02;;;;;;;1.3;0.7;;;;;;;6.81;67.40625;915.722;;;;
2020/03/06 02:26:30;;;;;;;2.5;0.7;;;;;;;6.82;67.09082;915.7709;;;;
2020/03/06 02:28:55;;;;;;;2;0.8;;;;;;;6.73;68.58203;915.6122;;;;
2020/03/06 02:31:20;;;;;;;1.7;0.7;;;;;;;6.83;67.6582;915.6815;;;;
2020/03/06 02:33:45;;;;;;;2;0.8;;;;;;;6.95;67.08789;915.7155;;;;
2020/03/06 02:36:10;;;;;;;0.9;0.8;;;;;;;6.87;67.58496;915.7767;;;;
2020/03/06 02:38:35;;;;;;;0.9;0.6;;;;;;;6.89;67.06836;915.6364;;;;
2020/03/06 02:41:00;;;;;;;1.1;0.7;;;;;;;6.92;66.56348;915.6881;;;;
2020/03/06 02:43:25;;;;;;;0.7;0.6;;;;;;;6.91;67.60352;915.6116;;;;
2020/03/06 02:45:51;;;;;;;1.2;0.8;;;;;;;6.86;66.53027;915.6241;;;;
2020/03/06 02:48:16;;;;;;;1.1;0.7;;;;;;;6.79;67.11914;915.7101;;;;
2020/03/06 02:50:41;;;;;;;0.8;0.6;;;;;;;6.9;67.09082;915.7755;;;;
2020/03/06 02:53:06;;;;;;;1.1;0.7;;;;;;;6.99;66.25684;915.7615;;;;
2020/03/06 02:55:31;;;;;;;1.3;0.7;;;;;;;7;66.20215;915.7614;;;;
2020/03/06 02:57:59;;;;;;;1.8;0.7;;;;;;;7.09;66.27148;915.8262;;;;
2020/03/06 03:00:24;;;;;;;0.8;0.6;;;;;;;7.15;65.97461;915.8561;;;;
2020/03/06 03:02:51;;;;;;;0.9;0.7;;;;;;;7.22;65.56738;915.8444;;;;
2020/03/06 03:05:14;;;;;;;1.1;0.7;;;;;;;7.26;65.60645;915.8122;;;;
2020/03/06 03:07:39;;;;;;;2.4;0.7;;;;;;;7.12;66.19727;915.9095;;;;
2020/03/06 03:10:04;;;;;;;1.5;0.8;;;;;;;6.96;66.56836;915.8901;;;;
2020/03/06 03:12:29;;;;;;;1.9;0.6;;;;;;;6.98;66.3916;915.9753;;;;
2020/03/06 03:14:54;;;;;;;0.7;0.6;;;;;;;6.9;66.28711;916.0634;;;;
2020/03/06 03:17:19;;;;;;;1;0.7;;;;;;;6.74;66.9873;916.0073;;;;
2020/03/06 03:19:45;;;;;;;1.2;0.7;;;;;;;6.68;67.55469;915.9781;;;;
2020/03/06 03:22:10;;;;;;;0.8;0.7;;;;;;;6.77;66.95801;916.1082;;;;
2020/03/06 03:24:35;;;;;;;0.9;0.6;;;;;;;6.75;67.2832;916.1749;;;;
2020/03/06 03:27:00;;;;;;;2;0.6;;;;;;;6.82;67.10059;916.1348;;;;
2020/03/06 03:29:25;;;;;;;2.1;0.7;;;;;;;6.79;66.73438;916.1072;;;;
2020/03/06 03:31:50;;;;;;;1.5;0.6;;;;;;;6.66;67.4502;916.0859;;;;
2020/03/06 03:34:15;;;;;;;0.8;0.6;;;;;;;6.69;66.91113;916.1931;;;;
2020/03/06 03:36:41;;;;;;;1.9;0.9;;;;;;;6.69;68.07715;916.2239;;;;
2020/03/06 03:39:07;;;;;;;0.9;0.7;;;;;;;6.62;68.06738;916.1947;;;;
2020/03/06 03:41:32;;;;;;;1.2;0.7;;;;;;;6.7;68.08008;916.2308;;;;
2020/03/06 03:43:57;;;;;;;0.6;0.6;;;;;;;6.68;67.68066;916.2461;;;;
2020/03/06 03:46:22;;;;;;;1.7;0.7;;;;;;;6.51;68.04785;916.33;;;;
2020/03/06 03:48:47;;;;;;;1.4;0.7;;;;;;;6.53;68.16602;916.4216;;;;
2020/03/06 03:51:12;;;;;;;0.8;0.6;;;;;;;6.52;68.16309;916.4082;;;;
2020/03/06 03:53:37;;;;;;;1.5;0.8;;;;;;;6.52;68.35547;916.4493;;;;
2020/03/06 03:56:02;;;;;;;1.1;0.6;;;;;;;6.56;67.87598;916.4384;;;;
2020/03/06 03:58:28;;;;;;;1.6;0.8;;;;;;;6.59;67.6543;916.5411;;;;
2020/03/06 04:02:30;;;;;;;0.9;0.6;;;;;;;6.66;68.10645;916.5808;;;;
2020/03/06 04:04:55;;;;;;;1.3;0.7;;;;;;;6.78;67.39063;916.581;;;;
2020/03/06 04:07:20;;;;;;;1.2;0.7;;;;;;;6.69;68.06543;916.5227;;;;
2020/03/06 04:09:45;;;;;;;1.3;0.7;;;;;;;6.48;68.88086;916.5636;;;;
2020/03/06 04:12:10;;;;;;;1;0.7;;;;;;;6.52;69.27148;916.5481;;;;
2020/03/06 04:14:35;;;;;;;1.3;0.8;;;;;;;6.65;69.15723;916.5731;;;;
2020/03/06 04:17:00;;;;;;;1.7;0.7;;;;;;;6.7;69.49414;916.5321;;;;
2020/03/06 04:19:25;;;;;;;2.9;0.9;;;;;;;6.73;69.41992;916.5666;;;;
2020/03/06 04:21:50;;;;;;;2.8;1.2;;;;;;;6.79;69.60938;916.5691;;;;
2020/03/06 04:24:15;;;;;;;2.1;0.8;;;;;;;6.71;69.8125;916.5628;;;;
2020/03/06 04:26:40;;;;;;;1.8;0.9;;;;;;;6.61;70.56543;916.6446;;;;
2020/03/06 04:29:06;;;;;;;2.5;0.8;;;;;;;6.71;71.26172;916.6379;;;;
2020/03/06 04:31:31;;;;;;;1.7;0.7;;;;;;;6.68;71.13086;916.5862;;;;
2020/03/06 04:33:56;;;;;;;1.7;1;;;;;;;6.58;71.6123;916.6692;;;;
2020/03/06 04:36:21;;;;;;;2;1.2;;;;;;;6.38;72.07617;916.7034;;;;
2020/03/06 04:38:46;;;;;;;1.3;0.9;;;;;;;6.31;71.87207;916.7492;;;;
2020/03/06 04:41:11;;;;;;;1.3;0.9;;;;;;;6.44;71.54297;916.7047;;;;
2020/03/06 04:43:36;;;;;;;1.3;1;;;;;;;6.48;71.17676;916.7516;;;;
2020/03/06 04:46:01;;;;;;;3.1;1.2;;;;;;;6.56;71.43945;916.818;;;;
2020/03/06 04:48:26;;;;;;;2.3;1.6;;;;;;;6.72;71.56836;916.815;;;;
2020/03/06 04:50:52;;;;;;;6.9;4.2;;;;;;;6.72;71.56836;916.8703;;;;
2020/03/06 04:53:18;;;;;;;2.4;1.8;;;;;;;6.63;71.28125;916.8737;;;;
2020/03/06 04:55:43;;;;;;;3;2.5;;;;;;;6.54;71.64941;916.9313;;;;
2020/03/06 04:58:09;;;;;;;4.3;2.8;;;;;;;6.26;72.60938;917.0072;;;;
2020/03/06 05:00:34;;;;;;;2.8;1.5;;;;;;;6.04;73.69043;916.9774;;;;
2020/03/06 05:02:59;;;;;;;3.3;1.4;;;;;;;6.08;73.59668;916.8378;;;;
2020/03/06 05:05:24;;;;;;;4.3;1.8;;;;;;;6.16;73.54297;916.9202;;;;
2020/03/06 05:07:51;;;;;;;2.9;1.5;;;;;;;6.05;74.16699;916.9416;;;;
2020/03/06 05:10:16;;;;;;;5.2;2.1;;;;;;;6.16;73.60938;916.9194;;;;
2020/03/06 05:12:41;;;;;;;9.3;5.1;;;;;;;6.17;73.12695;916.9414;;;;
2020/03/06 05:15:06;;;;;;;7.5;4.5;;;;;;;6.31;72.93457;916.9459;;;;
2020/03/06 05:17:32;;;;;;;5.2;3.4;;;;;;;6.44;72.68457;916.9537;;;;
2020/03/06 05:19:57;;;;;;;5.1;3;;;;;;;6.51;72.00684;916.9331;;;;
2020/03/06 05:22:22;;;;;;;4.5;2.4;;;;;;;6.45;72.56348;916.8492;;;;
2020/03/06 05:24:47;;;;;;;4.9;3.1;;;;;;;6.51;72.12207;916.9324;;;;
2020/03/06 05:27:12;;;;;;;2.8;1.9;;;;;;;6.45;71.37598;916.933;;;;
2020/03/06 05:29:38;;;;;;;2.2;1.1;;;;;;;6.18;69.18359;916.9453;;;;
2020/03/06 05:32:03;;;;;;;2;1.3;;;;;;;6.15;70.63672;917.075;;;;
2020/03/06 05:34:28;;;;;;;1.6;1.2;;;;;;;6.02;70.01758;917.0872;;;;
2020/03/06 05:36:53;;;;;;;2;1;;;;;;;5.88;70.43262;917.113;;;;
2020/03/06 05:39:18;;;;;;;2.1;1;;;;;;;5.87;70.81543;917.0515;;;;
2020/03/06 05:41:43;;;;;;;1.8;1.2;;;;;;;5.93;70.4209;917.15;;;;
2020/03/06 05:44:09;;;;;;;3.1;1.2;;;;;;;6.13;70.18066;917.0808;;;;
2020/03/06 05:46:34;;;;;;;2.7;1.3;;;;;;;6.29;70.15039;917.1492;;;;
2020/03/06 05:48:59;;;;;;;3.3;2.2;;;;;;;6.33;69.88672;917.1101;;;;
2020/03/06 05:51:24;;;;;;;3.4;2.3;;;;;;;6.29;70.65918;917.12;;;;
2020/03/06 05:53:49;;;;;;;4;2.7;;;;;;;6.2;71.3457;917.1275;;;;
2020/03/06 05:56:14;;;;;;;5.1;2.9;;;;;;;6.28;71.33594;917.1303;;;;
2020/03/06 05:58:40;;;;;;;7;3.6;;;;;;;6.38;71.03613;917.1799;;;;
2020/03/06 06:01:05;;;;;;;7.6;4.2;;;;;;;6.42;70.97559;917.2589;;;;
2020/03/06 06:03:30;;;;;;;5.7;3.5;;;;;;;6.4;70.80176;917.1932;;;;
2020/03/06 06:05:55;;;;;;;5.4;3.8;;;;;;;6.35;70.97461;917.2119;;;;
2020/03/06 06:08:20;;;;;;;4;2.5;;;;;;;6.27;70.48535;917.1953;;;;
2020/03/06 06:10:46;;;;;;;5.9;3.5;;;;;;;6.12;71.31055;917.1599;;;;
2020/03/06 06:13:11;;;;;;;4.3;3.1;;;;;;;6.1;71.2832;917.2224;;;;
2020/03/06 06:15:36;;;;;;;10.6;6.3;;;;;;;6.03;71.31641;917.2356;;;;
2020/03/06 06:18:01;;;;;;;9.2;6.2;;;;;;;6.01;71.25879;917.2294;;;;
2020/03/06 06:20:26;;;;;;;4.3;3;;;;;;;6.01;70.98438;917.2363;;;;
2020/03/06 06:22:51;;;;;;;6.8;3.7;;;;;;;6.01;70.74902;917.2152;;;;
2020/03/06 06:25:16;;;;;;;4.6;2.5;;;;;;;5.96;71.86914;917.2399;;;;
2020/03/06 06:27:42;;;;;;;3;1.8;;;;;;;5.75;71.77832;917.247;;;;
2020/03/06 06:30:07;;;;;;;2;1.5;;;;;;;5.53;72.39648;917.2024;;;;
2020/03/06 06:32:32;;;;;;;1.9;1.4;;;;;;;5.63;71.9502;917.195;;;;
2020/03/06 06:34:57;;;;;;;1.3;1;;;;;;;5.59;70.81543;917.2447;;;;
2020/03/06 06:37:22;;;;;;;1.7;1;;;;;;;5.78;70.58691;917.1616;;;;
2020/03/06 06:39:47;;;;;;;2.2;1.3;;;;;;;5.99;70.25977;917.2364;;;;
2020/03/06 06:42:12;;;;;;;3.2;1.6;;;;;;;6.2;69.95508;917.152;;;;
2020/03/06 06:44:37;;;;;;;6.5;1.6;;;;;;;6.63;69.7207;917.2058;;;;
2020/03/06 06:47:02;;;;;;;2.7;1.4;;;;;;;7.41;67.11523;917.1639;;;;
2020/03/06 06:49:27;;;;;;;2.1;1.4;;;;;;;8.27;63.80762;917.15;;;;
2020/03/06 06:51:53;;;;;;;2.5;1.6;;;;;;;9.05;59.67969;917.2463;;;;
2020/03/06 06:54:18;;;;;;;4.1;1.6;;;;;;;9.29;61.64941;917.2927;;;;
2020/03/06 06:56:43;;;;;;;3.6;2.6;;;;;;;9.63;59.41797;917.303;;;;
2020/03/06 06:59:08;;;;;;;4.3;2.8;;;;;;;10.23;57.45801;917.2863;;;;
2020/03/06 07:01:33;;;;;;;4.4;2.4;;;;;;;9.97;57.25293;917.3135;;;;
2020/03/06 07:03:59;;;;;;;4.5;1.6;;;;;;;9.58;58.64844;917.2981;;;;
2020/03/06 07:06:23;;;;;;;4.8;1.7;;;;;;;9.25;57.71387;917.3643;;;;
2020/03/06 07:08:48;;;;;;;6.3;3.9;;;;;;;9.24;58.50977;917.3121;;;;
2020/03/06 07:11:14;;;;;;;5;3;;;;;;;9.64;57.19727;917.3267;;;;
2020/03/06 07:13:39;;;;;;;5.1;3.2;;;;;;;10.26;55.76172;917.3745;;;;
2020/03/06 07:16:04;;;;;;;8.8;4.4;;;;;;;10.5;54.77832;917.3777;;;;
2020/03/06 07:18:29;;;;;;;8.8;3.7;;;;;;;11.1;53.11523;917.342;;;;
2020/03/06 07:20:54;;;;;;;5.8;3.7;;;;;;;12.01;50.76465;917.3698;;;;
2020/03/06 07:23:19;;;;;;;5.8;2.8;;;;;;;12.31;49.83594;917.3633;;;;
2020/03/06 07:25:44;;;;;;;4.1;2.3;;;;;;;12.57;48.52344;917.3429;;;;
2020/03/06 07:28:09;;;;;;;3;1.9;;;;;;;12.48;47.44727;917.2809;;;;
2020/03/06 07:30:34;;;;;;;6.1;1.9;;;;;;;12.5;47.75781;917.3092;;;;
2020/03/06 07:33:00;;;;;;;5.3;1.9;;;;;;;13.69;44.91113;917.1859;;;;
2020/03/06 07:35:25;;;;;;;3.6;1.5;;;;;;;14.33;43.08789;917.2356;;;;
2020/03/06 07:37:50;;;;;;;2.8;1.3;;;;;;;12.95;43.98535;917.3502;;;;
2020/03/06 07:40:15;;;;;;;2.9;1.7;;;;;;;12.2;46.09863;917.3035;;;;
2020/03/06 07:42:40;;;;;;;5.8;1.4;;;;;;;13.07;45.11133;917.1945;;;;
2020/03/06 07:45:05;;;;;;;1.8;1.4;;;;;;;14.48;42.14648;917.2335;;;;
2020/03/06 07:47:31;;;;;;;12.8;2.3;;;;;;;13.99;41.93848;917.3029;;;;
2020/03/06 07:49:56;;;;;;;19.5;2.3;;;;;;;13.91;41.82715;917.2698;;;;
2020/03/06 07:52:21;;;;;;;21.1;2.6;;;;;;;13.37;43.17773;917.3636;;;;
2020/03/06 07:54:46;;;;;;;27.5;3.1;;;;;;;13.52;43.92773;917.3395;;;;
2020/03/06 07:57:11;;;;;;;38;4.4;;;;;;;13.86;42.52344;917.3855;;;;
2020/03/06 07:59:36;;;;;;;16.4;2.3;;;;;;;14.24;42.53809;917.3979;;;;
2020/03/06 08:02:01;;;;;;;7.2;1.7;;;;;;;14.47;42.60645;917.3716;;;;
2020/03/06 08:04:27;;;;;;;4.7;1.4;;;;;;;15.32;41.25781;917.3164;;;;
2020/03/06 08:06:57;;;;;;;2.6;1.4;;;;;;;17.41;36.61816;917.4348;;;;
2020/03/06 08:09:20;;;;;;;4;1.3;;;;;;;18.13;35.59766;917.3906;;;;
2020/03/06 08:11:42;;;;;;;3;0.9;;;;;;;19.54;31.92383;917.4091;;;;
2020/03/06 08:14:08;;;;;;;2.8;1.1;;;;;;;20.7;30.88477;917.4347;;;;
2020/03/06 08:16:33;;;;;;;1.5;0.9;;;;;;;20.41;29.46387;917.4822;;;;
2020/03/06 08:18:58;;;;;;;1.6;1;;;;;;;19.51;31.35059;917.4361;;;;
2020/03/06 08:21:23;;;;;;;1.1;0.9;;;;;;;18.65;32.44141;917.5525;;;;
2020/03/06 08:23:48;;;;;;;1.4;1;;;;;;;17.95;34.31738;917.6172;;;;
2020/03/06 08:26:13;;;;;;;23.8;3.3;;;;;;;17.09;35.87305;917.6194;;;;
2020/03/06 08:28:39;;;;;;;24;3.3;;;;;;;16.27;37.44922;917.5055;;;;
2020/03/06 08:31:04;;;;;;;7.6;1.7;;;;;;;15.07;39.95313;917.5917;;;;
2020/03/06 08:33:29;;;;;;;19.5;2.5;;;;;;;14.97;39.93262;917.5948;;;;
2020/03/06 08:35:54;;;;;;;34.5;4.6;;;;;;;15.08;40.79688;917.6884;;;;
2020/03/06 08:38:20;;;;;;;12.1;2.2;;;;;;;16.91;36.40234;917.7251;;;;
2020/03/06 08:40:45;;;;;;;4.3;1.2;;;;;;;17.38;36.31445;917.7486;;;;
2020/03/06 08:43:12;;;;;;;14.1;2.2;;;;;;;17.5;34.02637;917.752;;;;
2020/03/06 08:45:36;;;;;;;3.2;0.9;;;;;;;17.47;35.75293;917.818;;;;
2020/03/06 08:48:01;;;;;;;0.8;0.5;;;;;;;16.41;35.16895;917.7514;;;;
2020/03/06 08:50:26;;;;;;;1;0.6;;;;;;;16.4;35.68848;917.8067;;;;
2020/03/06 08:52:51;;;;;;;1.6;0.6;;;;;;;15.86;36.58105;917.785;;;;
2020/03/06 08:55:17;;;;;;;0.9;0.6;;;;;;;16.77;35.15137;917.8283;;;;
2020/03/06 08:57:42;;;;;;;1.2;0.6;;;;;;;17.76;34.45313;917.8828;;;;
2020/03/06 09:00:07;;;;;;;10.2;1.6;;;;;;;18.71;32.70117;917.9455;;;;
2020/03/06 09:02:33;;;;;;;1.7;0.6;;;;;;;21.2;28.33594;917.8564;;;;
2020/03/06 09:05:00;;;;;;;5.6;0.7;;;;;;;22.55;26.4502;917.9548;;;;
2020/03/06 09:07:22;;;;;;;7.3;1.4;;;;;;;21.45;28.86621;917.9604;;;;
2020/03/06 09:09:47;;;;;;;8.7;1.2;;;;;;;19.51;30.91895;917.9644;;;;
2020/03/06 09:12:12;;;;;;;3.7;0.6;;;;;;;18.73;31.64453;917.9395;;;;
2020/03/06 09:14:37;;;;;;;13.5;1.6;;;;;;;18.49;32.40527;917.8644;;;;
2020/03/06 09:17:03;;;;;;;3.2;0.6;;;;;;;18.69;32.58301;918.0259;;;;
2020/03/06 09:19:28;;;;;;;3.3;0.5;;;;;;;17.78;33.94434;918.0489;;;;
2020/03/06 09:21:53;;;;;;;30.3;3.5;;;;;;;17.78;33.45703;918.0489;;;;
2020/03/06 09:24:19;;;;;;;7.5;1.4;;;;;;;17.04;33.46973;918.1316;;;;
2020/03/06 09:26:43;;;;;;;1.3;0.5;;;;;;;18.61;32.22852;918.1716;;;;
2020/03/06 09:29:08;;;;;;;2.5;0.4;;;;;;;19.43;30.87891;918.2047;;;;
2020/03/06 09:31:34;;;;;;;0.4;0.2;;;;;;;19.87;30.44336;918.2554;;;;
2020/03/06 09:33:59;;;;;;;1.2;0.5;;;;;;;20.12;30.10938;918.2207;;;;
2020/03/06 09:36:24;;;;;;;1.8;0.7;;;;;;;19.04;31.53809;918.2983;;;;
2020/03/06 09:38:50;;;;;;;1.2;0.5;;;;;;;19.59;30.43555;918.2067;;;;
2020/03/06 09:41:15;;;;;;;1.1;0.5;;;;;;;20.45;29.89844;918.2253;;;;
2020/03/06 09:43:40;;;;;;;1.3;0.4;;;;;;;20.83;29.80762;918.2178;;;;
2020/03/06 09:46:05;;;;;;;1.3;0.3;;;;;;;20.48;28.06738;918.3025;;;;
2020/03/06 09:48:30;;;;;;;6.2;1;;;;;;;20.38;30.25684;918.3652;;;;
2020/03/06 09:50:56;;;;;;;1.5;0.5;;;;;;;19.7;26.72363;918.1498;;;;
2020/03/06 09:53:21;;;;;;;4.5;0.7;;;;;;;18.14;29.77832;918.3951;;;;
2020/03/06 09:55:46;;;;;;;1.6;0.5;;;;;;;16.6;32.25488;918.443;;;;
2020/03/06 09:58:11;;;;;;;1.3;0.3;;;;;;;15.82;33.6543;918.3566;;;;
2020/03/06 10:00:36;;;;;;;2.8;0.2;;;;;;;14.58;33.32813;918.4497;;;;
2020/03/06 10:03:01;;;;;;;2.9;0.5;;;;;;;13.97;35.47949;918.5232;;;;
2020/03/06 10:05:27;;;;;;;4.8;0.4;;;;;;;13.69;34.42188;918.483;;;;
2020/03/06 10:07:58;;;;;;;3.3;0.7;;;;;;;13.36;36.17676;918.6285;;;;
2020/03/06 10:10:21;;;;;;;3.1;0.6;;;;;;;13.07;36.94531;918.6653;;;;
2020/03/06 10:12:46;;;;;;;2.3;0.2;;;;;;;12.65;36.3125;918.6794;;;;
2020/03/06 10:15:11;;;;;;;5.5;0.6;;;;;;;12.18;36.33105;918.6069;;;;
2020/03/06 10:17:36;;;;;;;4.1;0.5;;;;;;;12.05;37.41992;918.7366;;;;
2020/03/06 10:20:01;;;;;;;1.2;0.3;;;;;;;11.95;37.1377;918.6696;;;;
2020/03/06 10:22:26;;;;;;;2.4;0.3;;;;;;;12.43;36.86914;918.7678;;;;
2020/03/06 10:24:51;;;;;;;0.4;0.2;;;;;;;12.33;35.04785;918.7291;;;;
2020/03/06 10:27:17;;;;;;;1.9;0.7;;;;;;;12.23;37.02344;918.8427;;;;
2020/03/06 10:29:42;;;;;;;8.3;0.6;;;;;;;11.96;35.75195;918.8187;;;;
2020/03/06 10:32:08;;;;;;;1.4;0.2;;;;;;;12.09;37.12598;918.6789;;;;
2020/03/06 10:34:33;;;;;;;4.5;0.7;;;;;;;12.14;38.0127;918.7867;;;;
2020/03/06 10:36:58;;;;;;;1.9;0.4;;;;;;;12.09;35.39551;918.8152;;;;
2020/03/06 10:39:23;;;;;;;3.6;0.8;;;;;;;12.07;35.58887;918.9067;;;;
2020/03/06 10:41:48;;;;;;;2.1;0.5;;;;;;;11.96;36.32422;918.9525;;;;
2020/03/06 10:44:13;;;;;;;13.5;1.5;;;;;;;11.96;35.53418;918.9295;;;;
2020/03/06 10:46:39;;;;;;;6;0.7;;;;;;;12.01;36.62695;918.9347;;;;
2020/03/06 10:49:04;;;;;;;2.1;0.2;;;;;;;12.02;36.75391;919.0134;;;;
2020/03/06 10:51:29;;;;;;;0.4;0.2;;;;;;;11.63;36.91406;919.0469;;;;
2020/03/06 10:53:54;;;;;;;0.3;0.1;;;;;;;11.35;37.75977;919.0023;;;;
2020/03/06 10:56:19;;;;;;;4.6;0.4;;;;;;;11.96;37.57324;919.1273;;;;
2020/03/06 10:58:44;;;;;;;4.3;0.4;;;;;;;12.52;36.03809;919.1013;;;;
2020/03/06 11:01:09;;;;;;;3.9;0.6;;;;;;;13.14;34.69922;919.1442;;;;
2020/03/06 11:03:34;;;;;;;5;0.5;;;;;;;13.96;35.2373;919.0875;;;;
2020/03/06 11:06:00;;;;;;;7.7;0.9;;;;;;;14.7;32.3916;919.1209;;;;
2020/03/06 11:08:25;;;;;;;0.7;0.1;;;;;;;15.06;31.63477;919.0573;;;;
2020/03/06 11:10:53;;;;;;;5.6;1;;;;;;;14.39;33.07227;919.0832;;;;
2020/03/06 11:13:18;;;;;;;0.5;0.3;;;;;;;14.36;33.80664;919.1804;;;;
2020/03/06 11:15:43;;;;;;;0.9;0.2;;;;;;;15.12;30.85449;919.1367;;;;
2020/03/06 11:18:08;;;;;;;0.4;0.2;;;;;;;15.36;31.875;919.1069;;;;
2020/03/06 11:20:33;;;;;;;7;0.9;;;;;;;15.08;32.0625;919.1794;;;;
2020/03/06 11:22:58;;;;;;;0.5;0.3;;;;;;;14.74;31.70313;919.2037;;;;
2020/03/06 11:25:23;;;;;;;4.4;0.6;;;;;;;14.32;32.3418;919.2106;;;;
2020/03/06 11:27:49;;;;;;;4.3;0.4;;;;;;;13.49;33.99316;919.3464;;;;
2020/03/06 11:30:14;;;;;;;11;1.3;;;;;;;13.28;34.58594;919.3121;;;;
2020/03/06 11:32:39;;;;;;;1.8;0.3;;;;;;;13.33;34.87598;919.392;;;;
2020/03/06 11:35:04;;;;;;;0.5;0.2;;;;;;;13.3;34.17285;919.4827;;;;
2020/03/06 11:37:29;;;;;;;0.4;0.1;;;;;;;12.98;34.96289;919.4222;;;;
2020/03/06 11:39:54;;;;;;;1.4;0.3;;;;;;;13.56;36.15918;919.3356;;;;
2020/03/06 11:42:20;;;;;;;0.5;0.2;;;;;;;14.71;33.32715;919.3495;;;;
2020/03/06 11:44:45;;;;;;;1;0.1;;;;;;;14.95;31.25684;919.413;;;;
2020/03/06 11:47:11;;;;;;;0.2;0.2;;;;;;;14.46;32.17871;919.473;;;;
2020/03/06 11:49:37;;;;;;;2.1;0.4;;;;;;;14.14;32.7998;919.4771;;;;
2020/03/06 11:52:02;;;;;;;2;0.4;;;;;;;13.96;34.76563;919.418;;;;
2020/03/06 11:54:26;;;;;;;0.5;0.2;;;;;;;13.09;33.77734;919.3742;;;;
2020/03/06 11:56:51;;;;;;;0;0;;;;;;;12.75;34.8291;919.5076;;;;
2020/03/06 11:59:16;;;;;;;0.5;0.2;;;;;;;12.72;34.82813;919.5612;;;;
2020/03/06 12:01:41;;;;;;;0.4;0.2;;;;;;;12.68;34.9043;919.5712;;;;
2020/03/06 12:04:06;;;;;;;1.9;0.3;;;;;;;12.46;35.82715;919.4143;;;;
2020/03/06 12:06:32;;;;;;;0.9;0.2;;;;;;;12.52;35.35059;919.5652;;;;
2020/03/06 12:08:57;;;;;;;2.1;0.3;;;;;;;12.54;35.92578;919.5527;;;;
2020/03/06 12:11:22;;;;;;;5.9;0.6;;;;;;;12.54;34.80176;919.5916;;;;
2020/03/06 12:13:47;;;;;;;1.5;0.3;;;;;;;12.55;34.66406;919.5793;;;;
2020/03/06 12:16:12;;;;;;;2.7;0.5;;;;;;;12.52;34.9375;919.5828;;;;
2020/03/06 12:18:37;;;;;;;4.3;0.4;;;;;;;12.72;35.79199;919.538;;;;
2020/03/06 12:21:02;;;;;;;0.2;0.1;;;;;;;12.52;35.37305;919.5972;;;;
2020/03/06 12:23:27;;;;;;;0.9;0.3;;;;;;;13.39;34.2832;919.6995;;;;
2020/03/06 12:25:52;;;;;;;0.2;0.1;;;;;;;14.44;33.20215;919.6298;;;;
2020/03/06 12:28:18;;;;;;;0.4;0.2;;;;;;;14.26;32.39453;919.697;;;;
2020/03/06 12:30:43;;;;;;;0.5;0.2;;;;;;;13.85;32.82422;919.7079;;;;
2020/03/06 12:33:08;;;;;;;1.6;0.4;;;;;;;13.91;32.63281;919.6717;;;;
2020/03/06 12:35:33;;;;;;;0.4;0.2;;;;;;;13.4;33.12305;919.6642;;;;
2020/03/06 12:37:58;;;;;;;1.4;0.3;;;;;;;12.98;34.02148;919.7471;;;;
2020/03/06 12:40:23;;;;;;;1;0.2;;;;;;;12.59;35.43652;919.8;;;;
2020/03/06 12:42:48;;;;;;;2.2;0.3;;;;;;;12.39;36.26855;919.7489;;;;
2020/03/06 12:45:13;;;;;;;2.9;0.4;;;;;;;11.7;36.31445;920.0128;;;;
2020/03/06 12:47:38;;;;;;;1.1;0.3;;;;;;;11.69;36.1416;919.9094;;;;
2020/03/06 12:50:03;;;;;;;5.3;0.3;;;;;;;11.49;36.22754;920.0432;;;;
2020/03/06 12:52:28;;;;;;;3.9;1.1;;;;;;;11.76;36.9707;920.0736;;;;
2020/03/06 12:54:53;;;;;;;2.6;0.3;;;;;;;11.38;37.46582;920.0645;;;;
2020/03/06 12:57:18;;;;;;;0.9;0.3;;;;;;;11.76;36.55859;920.1597;;;;
2020/03/06 12:59:44;;;;;;;5.1;0.8;;;;;;;12.15;36.04199;920.3159;;;;
2020/03/06 13:02:09;;;;;;;0.1;0.1;;;;;;;11.81;36.59766;920.2392;;;;
2020/03/06 13:04:34;;;;;;;1.1;0.1;;;;;;;11.53;37.20313;920.2542;;;;
2020/03/06 13:06:59;;;;;;;0.6;0.2;;;;;;;11.05;37.91602;920.2772;;;;
2020/03/06 13:09:24;;;;;;;1.2;0.8;;;;;;;11.21;39.52148;920.3519;;;;
2020/03/06 13:11:49;;;;;;;5.7;0.6;;;;;;;11.17;37.7666;920.343;;;;
2020/03/06 13:14:14;;;;;;;5.2;0.4;;;;;;;10.94;36.81055;920.3873;;;;
2020/03/06 13:16:39;;;;;;;1.4;0.3;;;;;;;10.66;37.76855;920.3434;;;;
2020/03/06 13:19:05;;;;;;;0.4;0.2;;;;;;;10.85;38.21875;920.3823;;;;
2020/03/06 13:21:30;;;;;;;0.3;0.2;;;;;;;10.94;36.9248;920.4081;;;;
2020/03/06 13:23:55;;;;;;;2.1;0.2;;;;;;;10.67;37.33496;920.3362;;;;
2020/03/06 13:26:20;;;;;;;2.7;0.5;;;;;;;10.82;39.67871;920.535;;;;
2020/03/06 13:28:45;;;;;;;2.1;0.2;;;;;;;10.91;38.4873;920.5673;;;;
2020/03/06 13:31:10;;;;;;;1.1;0.1;;;;;;;10.88;36.99902;920.6428;;;;
2020/03/06 13:33:35;;;;;;;2;0.3;;;;;;;10.85;37.89941;920.6473;;;;
2020/03/06 13:36:00;;;;;;;0.4;0.2;;;;;;;10.48;38.7002;920.7438;;;;
2020/03/06 13:38:25;;;;;;;1.8;0.4;;;;;;;10.45;38.77832;920.6458;;;;
2020/03/06 13:40:51;;;;;;;0.5;0.2;;;;;;;10.67;38.26074;920.6277;;;;
2020/03/06 13:43:16;;;;;;;2.2;0.3;;;;;;;11.15;38.12012;920.6725;;;;
2020/03/06 13:45:41;;;;;;;3.5;0.4;;;;;;;12.49;35.53125;920.6077;;;;
2020/03/06 13:48:06;;;;;;;0.7;0.2;;;;;;;13.38;33.19043;920.5114;;;;
2020/03/06 13:50:31;;;;;;;1.6;0.2;;;;;;;12.97;33.52637;920.8061;;;;
2020/03/06 13:52:56;;;;;;;0.7;0.2;;;;;;;13.42;34.31934;920.6816;;;;
2020/03/06 13:55:21;;;;;;;0.5;0.2;;;;;;;13.47;32.95605;920.6744;;;;
2020/03/06 13:57:46;;;;;;;0.9;0.2;;;;;;;12.86;34.86133;920.7094;;;;
2020/03/06 14:00:11;;;;;;;1.2;0.2;;;;;;;13.52;33.91406;920.7145;;;;
2020/03/06 14:02:39;;;;;;;1.6;0.2;;;;;;;12.21;35.10742;920.7119;;;;
2020/03/06 14:05:01;;;;;;;0.5;0.2;;;;;;;12.36;35.75098;920.7136;;;;
2020/03/06 14:07:27;;;;;;;2.9;0.3;;;;;;;12.8;35.26953;920.8583;;;;
2020/03/06 14:09:52;;;;;;;2.2;0.4;;;;;;;12.87;35.26465;920.923;;;;
2020/03/06 14:12:17;;;;;;;2.4;0.2;;;;;;;12.47;34.99121;920.9681;;;;
2020/03/06 14:14:42;;;;;;;1.1;0.2;;;;;;;11.97;37.4707;920.9255;;;;
2020/03/06 14:17:09;;;;;;;4.2;0.8;;;;;;;12;36.35059;920.9717;;;;
2020/03/06 14:19:34;;;;;;;1.2;0.2;;;;;;;11.26;37.2041;920.9554;;;;